sensor_id;sensor_type;location;lat;lon;timestamp;P1;durP1;ratioP1;P2;durP2;ratioP2
26488;SDS011;14169;43.684;10.484;2023-04-19T00:02:19;2.80;;;1.70;;
26488;SDS011;14169;43.684;10.484;2023-04-19T00:04:44;1.50;;;1.00;;
26488;SDS011;14169;43.684;10.484;2023-04-19T00:07:11;1.48;;;1.00;;
26488;SDS011;14169;43.684;10.484;2023-04-19T00:09:37;2.60;;;1.23;;
26488;SDS011;14169;43.684;10.484;2023-04-19T00:12:03;1.77;;;1.27;;
26488;SDS011;14169;43.684;10.484;2023-04-19T00:14:29;3.13;;;1.40;;
26488;SDS011;14169;43.684;10.484;2023-04-19T00:16:54;1.45;;;1.25;;
26488;SDS011;14169;43.684;10.484;2023-04-19T00:19:20;1.50;;;1.40;;
26488;SDS011;14169;43.684;10.484;2023-04-19T00:21:46;1.77;;;1.45;;
26488;SDS011;14169;43.684;10.484;2023-04-19T00:24:12;1.50;;;1.40;;
26488;SDS011;14169;43.684;10.484;2023-04-19T00:26:37;1.50;;;1.20;;
26488;SDS011;14169;43.684;10.484;2023-04-19T00:29:02;2.22;;;1.40;;
26488;SDS011;14169;43.684;10.484;2023-04-19T00:31:28;1.15;;;1.00;;
26488;SDS011;14169;43.684;10.484;2023-04-19T00:33:53;2.78;;;1.70;;
26488;SDS011;14169;43.684;10.484;2023-04-19T00:36:20;1.65;;;1.40;;
26488;SDS011;14169;43.684;10.484;2023-04-19T00:38:48;1.40;;;1.30;;
26488;SDS011;14169;43.684;10.484;2023-04-19T00:41:14;1.70;;;1.40;;
26488;SDS011;14169;43.684;10.484;2023-04-19T00:43:40;1.55;;;1.40;;
26488;SDS011;14169;43.684;10.484;2023-04-19T00:46:05;2.10;;;1.52;;
26488;SDS011;14169;43.684;10.484;2023-04-19T00:48:31;1.70;;;1.35;;
26488;SDS011;14169;43.684;10.484;2023-04-19T00:51:00;2.70;;;1.55;;
26488;SDS011;14169;43.684;10.484;2023-04-19T00:53:25;3.45;;;1.50;;
26488;SDS011;14169;43.684;10.484;2023-04-19T00:55:51;1.63;;;1.33;;
26488;SDS011;14169;43.684;10.484;2023-04-19T00:58:18;1.80;;;1.70;;
26488;SDS011;14169;43.684;10.484;2023-04-19T01:00:43;1.38;;;1.27;;
26488;SDS011;14169;43.684;10.484;2023-04-19T01:03:09;1.75;;;1.60;;
26488;SDS011;14169;43.684;10.484;2023-04-19T01:05:34;1.83;;;1.73;;
26488;SDS011;14169;43.684;10.484;2023-04-19T01:08:00;3.80;;;2.35;;
26488;SDS011;14169;43.684;10.484;2023-04-19T01:10:25;2.25;;;1.92;;
26488;SDS011;14169;43.684;10.484;2023-04-19T01:12:51;2.38;;;2.15;;
26488;SDS011;14169;43.684;10.484;2023-04-19T01:15:16;2.28;;;2.08;;
26488;SDS011;14169;43.684;10.484;2023-04-19T01:17:42;3.65;;;2.60;;
26488;SDS011;14169;43.684;10.484;2023-04-19T01:20:07;3.25;;;2.70;;
26488;SDS011;14169;43.684;10.484;2023-04-19T01:22:34;2.55;;;2.35;;
26488;SDS011;14169;43.684;10.484;2023-04-19T01:25:02;3.00;;;2.60;;
26488;SDS011;14169;43.684;10.484;2023-04-19T01:27:28;2.70;;;2.25;;
26488;SDS011;14169;43.684;10.484;2023-04-19T01:29:53;3.70;;;2.58;;
26488;SDS011;14169;43.684;10.484;2023-04-19T01:32:19;2.83;;;2.33;;
26488;SDS011;14169;43.684;10.484;2023-04-19T01:34:44;2.80;;;2.42;;
26488;SDS011;14169;43.684;10.484;2023-04-19T01:37:11;2.35;;;1.98;;
26488;SDS011;14169;43.684;10.484;2023-04-19T01:39:36;2.17;;;1.98;;
26488;SDS011;14169;43.684;10.484;2023-04-19T01:42:01;2.17;;;1.98;;
26488;SDS011;14169;43.684;10.484;2023-04-19T01:44:28;2.45;;;1.83;;
26488;SDS011;14169;43.684;10.484;2023-04-19T01:46:53;2.83;;;2.38;;
26488;SDS011;14169;43.684;10.484;2023-04-19T01:49:20;2.40;;;2.20;;
26488;SDS011;14169;43.684;10.484;2023-04-19T01:51:45;4.70;;;2.85;;
26488;SDS011;14169;43.684;10.484;2023-04-19T01:54:10;2.70;;;2.15;;
26488;SDS011;14169;43.684;10.484;2023-04-19T01:56:36;2.50;;;2.30;;
26488;SDS011;14169;43.684;10.484;2023-04-19T01:59:01;2.42;;;2.03;;
26488;SDS011;14169;43.684;10.484;2023-04-19T02:01:28;2.58;;;2.03;;
26488;SDS011;14169;43.684;10.484;2023-04-19T02:03:53;2.55;;;1.88;;
26488;SDS011;14169;43.684;10.484;2023-04-19T02:06:19;3.40;;;2.28;;
26488;SDS011;14169;43.684;10.484;2023-04-19T02:08:44;2.85;;;2.40;;
26488;SDS011;14169;43.684;10.484;2023-04-19T02:11:10;2.72;;;2.15;;
26488;SDS011;14169;43.684;10.484;2023-04-19T02:13:38;2.85;;;1.88;;
26488;SDS011;14169;43.684;10.484;2023-04-19T02:16:04;3.75;;;3.15;;
26488;SDS011;14169;43.684;10.484;2023-04-19T02:18:30;2.60;;;2.15;;
26488;SDS011;14169;43.684;10.484;2023-04-19T02:21:00;2.88;;;2.40;;
26488;SDS011;14169;43.684;10.484;2023-04-19T02:23:25;3.60;;;2.20;;
26488;SDS011;14169;43.684;10.484;2023-04-19T02:25:51;3.08;;;2.50;;
26488;SDS011;14169;43.684;10.484;2023-04-19T02:28:17;3.25;;;2.50;;
26488;SDS011;14169;43.684;10.484;2023-04-19T02:30:42;3.30;;;2.80;;
26488;SDS011;14169;43.684;10.484;2023-04-19T02:33:08;2.80;;;2.50;;
26488;SDS011;14169;43.684;10.484;2023-04-19T02:35:33;3.72;;;2.45;;
26488;SDS011;14169;43.684;10.484;2023-04-19T02:38:00;2.47;;;2.28;;
26488;SDS011;14169;43.684;10.484;2023-04-19T02:40:26;2.88;;;2.45;;
26488;SDS011;14169;43.684;10.484;2023-04-19T02:42:51;3.47;;;3.08;;
26488;SDS011;14169;43.684;10.484;2023-04-19T02:45:17;3.15;;;2.75;;
26488;SDS011;14169;43.684;10.484;2023-04-19T02:47:42;3.70;;;2.45;;
26488;SDS011;14169;43.684;10.484;2023-04-19T02:50:10;3.65;;;3.00;;
26488;SDS011;14169;43.684;10.484;2023-04-19T02:52:35;2.97;;;2.35;;
26488;SDS011;14169;43.684;10.484;2023-04-19T02:55:01;4.00;;;3.08;;
26488;SDS011;14169;43.684;10.484;2023-04-19T02:57:26;2.25;;;2.05;;
26488;SDS011;14169;43.684;10.484;2023-04-19T02:59:52;4.93;;;2.63;;
26488;SDS011;14169;43.684;10.484;2023-04-19T03:02:17;3.47;;;2.25;;
26488;SDS011;14169;43.684;10.484;2023-04-19T03:04:42;3.22;;;2.47;;
26488;SDS011;14169;43.684;10.484;2023-04-19T03:07:08;3.75;;;2.20;;
26488;SDS011;14169;43.684;10.484;2023-04-19T03:09:34;2.92;;;2.47;;
26488;SDS011;14169;43.684;10.484;2023-04-19T03:11:59;4.55;;;2.80;;
26488;SDS011;14169;43.684;10.484;2023-04-19T03:14:25;3.47;;;3.17;;
26488;SDS011;14169;43.684;10.484;2023-04-19T03:16:50;2.88;;;2.25;;
26488;SDS011;14169;43.684;10.484;2023-04-19T03:19:16;2.55;;;2.30;;
26488;SDS011;14169;43.684;10.484;2023-04-19T03:21:41;3.67;;;3.00;;
26488;SDS011;14169;43.684;10.484;2023-04-19T03:24:07;2.55;;;2.33;;
26488;SDS011;14169;43.684;10.484;2023-04-19T03:26:33;2.75;;;2.30;;
26488;SDS011;14169;43.684;10.484;2023-04-19T03:28:58;2.92;;;2.60;;
26488;SDS011;14169;43.684;10.484;2023-04-19T03:31:23;2.50;;;2.28;;
26488;SDS011;14169;43.684;10.484;2023-04-19T03:33:49;2.60;;;2.40;;
26488;SDS011;14169;43.684;10.484;2023-04-19T03:36:15;6.72;;;2.80;;
26488;SDS011;14169;43.684;10.484;2023-04-19T03:38:40;4.63;;;2.92;;
26488;SDS011;14169;43.684;10.484;2023-04-19T03:41:16;2.70;;;2.33;;
26488;SDS011;14169;43.684;10.484;2023-04-19T03:43:49;2.97;;;2.65;;
26488;SDS011;14169;43.684;10.484;2023-04-19T03:46:14;3.22;;;2.92;;
26488;SDS011;14169;43.684;10.484;2023-04-19T03:48:40;4.45;;;2.42;;
26488;SDS011;14169;43.684;10.484;2023-04-19T03:51:05;4.22;;;2.92;;
26488;SDS011;14169;43.684;10.484;2023-04-19T03:53:31;2.60;;;2.40;;
26488;SDS011;14169;43.684;10.484;2023-04-19T03:55:56;3.55;;;2.67;;
26488;SDS011;14169;43.684;10.484;2023-04-19T03:58:21;3.08;;;2.53;;
26488;SDS011;14169;43.684;10.484;2023-04-19T04:00:47;3.67;;;2.58;;
26488;SDS011;14169;43.684;10.484;2023-04-19T04:03:12;3.40;;;2.83;;
26488;SDS011;14169;43.684;10.484;2023-04-19T04:05:38;3.30;;;2.80;;
26488;SDS011;14169;43.684;10.484;2023-04-19T04:08:03;3.42;;;2.58;;
26488;SDS011;14169;43.684;10.484;2023-04-19T04:10:29;3.38;;;2.90;;
26488;SDS011;14169;43.684;10.484;2023-04-19T04:12:54;3.95;;;2.78;;
26488;SDS011;14169;43.684;10.484;2023-04-19T04:15:20;5.18;;;2.97;;
26488;SDS011;14169;43.684;10.484;2023-04-19T04:17:45;3.10;;;2.80;;
26488;SDS011;14169;43.684;10.484;2023-04-19T04:20:11;5.35;;;3.50;;
26488;SDS011;14169;43.684;10.484;2023-04-19T04:22:46;3.80;;;2.70;;
26488;SDS011;14169;43.684;10.484;2023-04-19T04:25:12;2.58;;;2.38;;
26488;SDS011;14169;43.684;10.484;2023-04-19T04:27:39;4.07;;;2.97;;
26488;SDS011;14169;43.684;10.484;2023-04-19T04:30:06;3.40;;;3.10;;
26488;SDS011;14169;43.684;10.484;2023-04-19T04:32:33;2.47;;;2.20;;
26488;SDS011;14169;43.684;10.484;2023-04-19T04:35:03;3.97;;;2.70;;
26488;SDS011;14169;43.684;10.484;2023-04-19T04:37:35;4.22;;;2.33;;
26488;SDS011;14169;43.684;10.484;2023-04-19T04:40:02;3.85;;;2.22;;
26488;SDS011;14169;43.684;10.484;2023-04-19T04:42:32;2.80;;;2.30;;
26488;SDS011;14169;43.684;10.484;2023-04-19T04:44:57;3.55;;;2.38;;
26488;SDS011;14169;43.684;10.484;2023-04-19T04:47:29;2.42;;;2.22;;
26488;SDS011;14169;43.684;10.484;2023-04-19T04:49:56;3.05;;;2.40;;
26488;SDS011;14169;43.684;10.484;2023-04-19T04:52:21;3.17;;;2.53;;
26488;SDS011;14169;43.684;10.484;2023-04-19T04:54:46;4.53;;;2.70;;
26488;SDS011;14169;43.684;10.484;2023-04-19T04:57:12;2.97;;;2.65;;
26488;SDS011;14169;43.684;10.484;2023-04-19T04:59:37;5.32;;;2.75;;
26488;SDS011;14169;43.684;10.484;2023-04-19T05:02:02;3.10;;;2.80;;
26488;SDS011;14169;43.684;10.484;2023-04-19T05:04:28;3.33;;;2.97;;
26488;SDS011;14169;43.684;10.484;2023-04-19T05:06:53;3.78;;;3.38;;
26488;SDS011;14169;43.684;10.484;2023-04-19T05:09:19;4.35;;;2.75;;
26488;SDS011;14169;43.684;10.484;2023-04-19T05:11:44;3.40;;;3.10;;
26488;SDS011;14169;43.684;10.484;2023-04-19T05:14:10;3.13;;;2.33;;
26488;SDS011;14169;43.684;10.484;2023-04-19T05:16:36;3.30;;;2.65;;
26488;SDS011;14169;43.684;10.484;2023-04-19T05:19:01;6.70;;;3.15;;
26488;SDS011;14169;43.684;10.484;2023-04-19T05:21:27;4.10;;;2.88;;
26488;SDS011;14169;43.684;10.484;2023-04-19T05:23:52;3.75;;;2.53;;
26488;SDS011;14169;43.684;10.484;2023-04-19T05:26:18;4.82;;;2.80;;
26488;SDS011;14169;43.684;10.484;2023-04-19T05:28:43;5.95;;;2.70;;
26488;SDS011;14169;43.684;10.484;2023-04-19T05:31:10;4.72;;;2.53;;
26488;SDS011;14169;43.684;10.484;2023-04-19T05:33:36;2.85;;;2.65;;
26488;SDS011;14169;43.684;10.484;2023-04-19T05:36:02;5.90;;;2.95;;
26488;SDS011;14169;43.684;10.484;2023-04-19T05:38:27;4.03;;;3.10;;
26488;SDS011;14169;43.684;10.484;2023-04-19T05:40:53;3.38;;;2.45;;
26488;SDS011;14169;43.684;10.484;2023-04-19T05:43:18;4.18;;;2.05;;
26488;SDS011;14169;43.684;10.484;2023-04-19T05:45:44;4.35;;;2.28;;
26488;SDS011;14169;43.684;10.484;2023-04-19T05:48:09;4.00;;;3.00;;
26488;SDS011;14169;43.684;10.484;2023-04-19T05:50:35;4.03;;;3.20;;
26488;SDS011;14169;43.684;10.484;2023-04-19T05:53:00;8.93;;;2.88;;
26488;SDS011;14169;43.684;10.484;2023-04-19T05:55:26;6.80;;;3.40;;
26488;SDS011;14169;43.684;10.484;2023-04-19T05:57:52;5.80;;;2.75;;
26488;SDS011;14169;43.684;10.484;2023-04-19T06:00:17;4.50;;;3.22;;
26488;SDS011;14169;43.684;10.484;2023-04-19T06:02:43;7.65;;;3.72;;
26488;SDS011;14169;43.684;10.484;2023-04-19T06:05:09;3.80;;;3.20;;
26488;SDS011;14169;43.684;10.484;2023-04-19T06:07:34;7.20;;;4.18;;
26488;SDS011;14169;43.684;10.484;2023-04-19T06:10:00;9.38;;;3.50;;
26488;SDS011;14169;43.684;10.484;2023-04-19T06:12:25;4.50;;;3.10;;
26488;SDS011;14169;43.684;10.484;2023-04-19T06:14:51;8.73;;;4.22;;
26488;SDS011;14169;43.684;10.484;2023-04-19T06:17:16;4.78;;;3.33;;
26488;SDS011;14169;43.684;10.484;2023-04-19T06:19:47;5.97;;;3.88;;
26488;SDS011;14169;43.684;10.484;2023-04-19T06:22:12;5.53;;;3.70;;
26488;SDS011;14169;43.684;10.484;2023-04-19T06:24:38;4.50;;;3.35;;
26488;SDS011;14169;43.684;10.484;2023-04-19T06:27:03;4.35;;;3.55;;
26488;SDS011;14169;43.684;10.484;2023-04-19T06:29:29;7.60;;;3.00;;
26488;SDS011;14169;43.684;10.484;2023-04-19T06:31:54;3.75;;;3.33;;
26488;SDS011;14169;43.684;10.484;2023-04-19T06:34:20;6.63;;;2.88;;
26488;SDS011;14169;43.684;10.484;2023-04-19T06:36:45;5.68;;;3.17;;
26488;SDS011;14169;43.684;10.484;2023-04-19T06:39:10;4.45;;;3.35;;
26488;SDS011;14169;43.684;10.484;2023-04-19T06:41:36;4.38;;;3.47;;
26488;SDS011;14169;43.684;10.484;2023-04-19T06:44:01;5.15;;;2.85;;
26488;SDS011;14169;43.684;10.484;2023-04-19T06:46:27;4.80;;;3.78;;
26488;SDS011;14169;43.684;10.484;2023-04-19T06:48:52;4.88;;;3.08;;
26488;SDS011;14169;43.684;10.484;2023-04-19T06:51:18;4.13;;;3.28;;
26488;SDS011;14169;43.684;10.484;2023-04-19T06:53:43;4.40;;;3.00;;
26488;SDS011;14169;43.684;10.484;2023-04-19T06:56:09;3.65;;;3.05;;
26488;SDS011;14169;43.684;10.484;2023-04-19T06:58:35;5.35;;;3.05;;
26488;SDS011;14169;43.684;10.484;2023-04-19T07:01:00;3.78;;;3.33;;
26488;SDS011;14169;43.684;10.484;2023-04-19T07:03:28;7.47;;;3.38;;
26488;SDS011;14169;43.684;10.484;2023-04-19T07:05:53;4.05;;;3.05;;
26488;SDS011;14169;43.684;10.484;2023-04-19T07:08:20;3.30;;;3.00;;
26488;SDS011;14169;43.684;10.484;2023-04-19T07:10:47;4.55;;;2.65;;
26488;SDS011;14169;43.684;10.484;2023-04-19T07:13:12;9.40;;;2.72;;
26488;SDS011;14169;43.684;10.484;2023-04-19T07:15:37;5.95;;;5.13;;
26488;SDS011;14169;43.684;10.484;2023-04-19T07:18:03;3.75;;;3.22;;
26488;SDS011;14169;43.684;10.484;2023-04-19T07:20:29;4.57;;;2.92;;
26488;SDS011;14169;43.684;10.484;2023-04-19T07:22:56;3.95;;;2.75;;
26488;SDS011;14169;43.684;10.484;2023-04-19T07:25:25;5.10;;;2.38;;
26488;SDS011;14169;43.684;10.484;2023-04-19T07:27:53;8.25;;;2.50;;
26488;SDS011;14169;43.684;10.484;2023-04-19T07:30:20;3.00;;;2.10;;
26488;SDS011;14169;43.684;10.484;2023-04-19T07:32:46;6.47;;;3.60;;
26488;SDS011;14169;43.684;10.484;2023-04-19T07:35:11;4.47;;;3.78;;
26488;SDS011;14169;43.684;10.484;2023-04-19T07:37:37;8.57;;;4.43;;
26488;SDS011;14169;43.684;10.484;2023-04-19T07:40:03;6.18;;;3.95;;
26488;SDS011;14169;43.684;10.484;2023-04-19T07:42:29;5.40;;;4.07;;
26488;SDS011;14169;43.684;10.484;2023-04-19T07:44:55;4.32;;;3.92;;
26488;SDS011;14169;43.684;10.484;2023-04-19T07:47:21;5.25;;;4.18;;
26488;SDS011;14169;43.684;10.484;2023-04-19T07:49:50;4.95;;;4.35;;
26488;SDS011;14169;43.684;10.484;2023-04-19T07:52:16;5.13;;;3.97;;
26488;SDS011;14169;43.684;10.484;2023-04-19T07:54:42;4.47;;;3.72;;
26488;SDS011;14169;43.684;10.484;2023-04-19T07:57:08;4.63;;;4.07;;
26488;SDS011;14169;43.684;10.484;2023-04-19T07:59:33;3.95;;;3.55;;
26488;SDS011;14169;43.684;10.484;2023-04-19T08:01:59;5.13;;;3.53;;
26488;SDS011;14169;43.684;10.484;2023-04-19T08:04:24;3.63;;;3.33;;
26488;SDS011;14169;43.684;10.484;2023-04-19T08:06:50;3.45;;;3.15;;
26488;SDS011;14169;43.684;10.484;2023-04-19T08:09:16;4.18;;;3.25;;
26488;SDS011;14169;43.684;10.484;2023-04-19T08:11:42;4.50;;;2.97;;
26488;SDS011;14169;43.684;10.484;2023-04-19T08:14:07;3.70;;;2.75;;
26488;SDS011;14169;43.684;10.484;2023-04-19T08:16:35;3.45;;;2.83;;
26488;SDS011;14169;43.684;10.484;2023-04-19T08:19:01;5.20;;;2.72;;
26488;SDS011;14169;43.684;10.484;2023-04-19T08:21:26;5.85;;;2.75;;
26488;SDS011;14169;43.684;10.484;2023-04-19T08:23:51;3.72;;;2.78;;
26488;SDS011;14169;43.684;10.484;2023-04-19T08:26:17;5.13;;;3.00;;
26488;SDS011;14169;43.684;10.484;2023-04-19T08:28:42;2.85;;;2.30;;
26488;SDS011;14169;43.684;10.484;2023-04-19T08:31:08;3.95;;;2.60;;
26488;SDS011;14169;43.684;10.484;2023-04-19T08:33:36;2.45;;;2.25;;
26488;SDS011;14169;43.684;10.484;2023-04-19T08:36:01;3.42;;;2.70;;
26488;SDS011;14169;43.684;10.484;2023-04-19T08:38:26;4.05;;;2.42;;
26488;SDS011;14169;43.684;10.484;2023-04-19T08:40:52;2.90;;;1.95;;
26488;SDS011;14169;43.684;10.484;2023-04-19T08:43:19;2.97;;;2.35;;
26488;SDS011;14169;43.684;10.484;2023-04-19T08:45:46;2.97;;;2.03;;
26488;SDS011;14169;43.684;10.484;2023-04-19T08:48:13;2.75;;;1.75;;
26488;SDS011;14169;43.684;10.484;2023-04-19T08:50:42;2.42;;;1.90;;
26488;SDS011;14169;43.684;10.484;2023-04-19T08:53:10;2.08;;;1.88;;
26488;SDS011;14169;43.684;10.484;2023-04-19T08:55:37;2.50;;;1.85;;
26488;SDS011;14169;43.684;10.484;2023-04-19T08:58:04;2.28;;;1.85;;
26488;SDS011;14169;43.684;10.484;2023-04-19T09:00:31;2.78;;;1.80;;
26488;SDS011;14169;43.684;10.484;2023-04-19T09:02:58;3.08;;;2.20;;
26488;SDS011;14169;43.684;10.484;2023-04-19T09:05:23;3.30;;;2.00;;
26488;SDS011;14169;43.684;10.484;2023-04-19T09:07:49;3.55;;;1.70;;
26488;SDS011;14169;43.684;10.484;2023-04-19T09:10:16;2.38;;;1.85;;
26488;SDS011;14169;43.684;10.484;2023-04-19T09:12:43;3.65;;;2.20;;
26488;SDS011;14169;43.684;10.484;2023-04-19T09:15:38;2.35;;;1.60;;
26488;SDS011;14169;43.684;10.484;2023-04-19T09:18:08;2.13;;;1.92;;
26488;SDS011;14169;43.684;10.484;2023-04-19T09:20:37;2.58;;;1.75;;
26488;SDS011;14169;43.684;10.484;2023-04-19T09:23:05;1.50;;;1.40;;
26488;SDS011;14169;43.684;10.484;2023-04-19T09:25:32;3.03;;;1.88;;
26488;SDS011;14169;43.684;10.484;2023-04-19T09:28:10;42.85;;;5.35;;
26488;SDS011;14169;43.684;10.484;2023-04-19T09:30:38;4.05;;;1.42;;
26488;SDS011;14169;43.684;10.484;2023-04-19T09:33:05;2.60;;;1.90;;
26488;SDS011;14169;43.684;10.484;2023-04-19T09:35:47;7.80;;;1.75;;
26488;SDS011;14169;43.684;10.484;2023-04-19T09:38:13;1.88;;;1.55;;
26488;SDS011;14169;43.684;10.484;2023-04-19T09:40:40;1.98;;;1.50;;
26488;SDS011;14169;43.684;10.484;2023-04-19T09:43:06;2.42;;;2.22;;
26488;SDS011;14169;43.684;10.484;2023-04-19T09:45:42;2.13;;;1.45;;
26488;SDS011;14169;43.684;10.484;2023-04-19T09:48:08;2.20;;;1.67;;
26488;SDS011;14169;43.684;10.484;2023-04-19T09:50:35;2.30;;;1.85;;
26488;SDS011;14169;43.684;10.484;2023-04-19T09:53:01;1.83;;;1.63;;
26488;SDS011;14169;43.684;10.484;2023-04-19T09:55:27;2.38;;;1.60;;
26488;SDS011;14169;43.684;10.484;2023-04-19T09:57:52;2.15;;;1.70;;
26488;SDS011;14169;43.684;10.484;2023-04-19T10:00:18;1.88;;;1.52;;
26488;SDS011;14169;43.684;10.484;2023-04-19T10:02:45;1.63;;;1.48;;
26488;SDS011;14169;43.684;10.484;2023-04-19T10:05:20;1.42;;;1.20;;
26488;SDS011;14169;43.684;10.484;2023-04-19T10:07:46;2.97;;;1.63;;
26488;SDS011;14169;43.684;10.484;2023-04-19T10:10:14;1.70;;;1.40;;
26488;SDS011;14169;43.684;10.484;2023-04-19T10:12:41;1.70;;;1.55;;
26488;SDS011;14169;43.684;10.484;2023-04-19T10:15:12;2.13;;;1.45;;
26488;SDS011;14169;43.684;10.484;2023-04-19T10:17:38;1.77;;;1.45;;
26488;SDS011;14169;43.684;10.484;2023-04-19T10:20:05;1.98;;;1.55;;
26488;SDS011;14169;43.684;10.484;2023-04-19T10:22:35;2.10;;;1.37;;
26488;SDS011;14169;43.684;10.484;2023-04-19T10:25:07;2.92;;;1.45;;
26488;SDS011;14169;43.684;10.484;2023-04-19T10:27:37;1.55;;;1.40;;
26488;SDS011;14169;43.684;10.484;2023-04-19T10:30:03;1.88;;;1.33;;
26488;SDS011;14169;43.684;10.484;2023-04-19T10:35:06;3.60;;;1.00;;
26488;SDS011;14169;43.684;10.484;2023-04-19T10:37:42;1.17;;;1.02;;
26488;SDS011;14169;43.684;10.484;2023-04-19T10:43:31;1.60;;;1.05;;
26488;SDS011;14169;43.684;10.484;2023-04-19T10:46:00;3.45;;;1.58;;
26488;SDS011;14169;43.684;10.484;2023-04-19T10:48:30;2.43;;;2.00;;
26488;SDS011;14169;43.684;10.484;2023-04-19T10:51:16;3.15;;;1.30;;
26488;SDS011;14169;43.684;10.484;2023-04-19T10:56:10;1.58;;;1.10;;
26488;SDS011;14169;43.684;10.484;2023-04-19T11:01:33;8.65;;;1.80;;
26488;SDS011;14169;43.684;10.484;2023-04-19T11:06:56;2.50;;;1.90;;
26488;SDS011;14169;43.684;10.484;2023-04-19T11:09:38;2.45;;;1.70;;
26488;SDS011;14169;43.684;10.484;2023-04-19T11:12:12;1.70;;;1.58;;
26488;SDS011;14169;43.684;10.484;2023-04-19T11:14:40;1.65;;;1.52;;
26488;SDS011;14169;43.684;10.484;2023-04-19T11:17:14;1.67;;;1.48;;
26488;SDS011;14169;43.684;10.484;2023-04-19T11:19:43;1.77;;;1.65;;
26488;SDS011;14169;43.684;10.484;2023-04-19T11:22:09;2.47;;;1.42;;
26488;SDS011;14169;43.684;10.484;2023-04-19T11:24:35;1.42;;;1.17;;
26488;SDS011;14169;43.684;10.484;2023-04-19T11:27:00;2.05;;;1.42;;
26488;SDS011;14169;43.684;10.484;2023-04-19T11:31:59;1.40;;;1.30;;
26488;SDS011;14169;43.684;10.484;2023-04-19T11:34:24;3.20;;;1.45;;
26488;SDS011;14169;43.684;10.484;2023-04-19T11:36:50;1.65;;;1.40;;
26488;SDS011;14169;43.684;10.484;2023-04-19T11:39:16;1.35;;;1.20;;
26488;SDS011;14169;43.684;10.484;2023-04-19T11:41:42;2.53;;;1.40;;
26488;SDS011;14169;43.684;10.484;2023-04-19T11:44:17;2.28;;;1.30;;
26488;SDS011;14169;43.684;10.484;2023-04-19T11:49:28;1.90;;;1.20;;
26488;SDS011;14169;43.684;10.484;2023-04-19T11:51:55;1.63;;;1.30;;
26488;SDS011;14169;43.684;10.484;2023-04-19T11:54:22;1.58;;;1.17;;
26488;SDS011;14169;43.684;10.484;2023-04-19T11:57:07;1.45;;;1.35;;
26488;SDS011;14169;43.684;10.484;2023-04-19T11:59:36;1.83;;;1.25;;
26488;SDS011;14169;43.684;10.484;2023-04-19T12:04:36;1.63;;;1.27;;
26488;SDS011;14169;43.684;10.484;2023-04-19T12:07:03;1.90;;;1.15;;
26488;SDS011;14169;43.684;10.484;2023-04-19T12:09:31;1.15;;;1.05;;
26488;SDS011;14169;43.684;10.484;2023-04-19T12:11:58;2.78;;;1.20;;
26488;SDS011;14169;43.684;10.484;2023-04-19T12:14:24;1.98;;;1.40;;
26488;SDS011;14169;43.684;10.484;2023-04-19T12:17:09;1.20;;;1.10;;
26488;SDS011;14169;43.684;10.484;2023-04-19T12:19:36;1.38;;;1.10;;
26488;SDS011;14169;43.684;10.484;2023-04-19T12:22:10;1.40;;;1.30;;
26488;SDS011;14169;43.684;10.484;2023-04-19T12:24:36;1.88;;;1.20;;
26488;SDS011;14169;43.684;10.484;2023-04-19T12:27:03;1.48;;;1.10;;
26488;SDS011;14169;43.684;10.484;2023-04-19T12:29:28;1.83;;;1.15;;
26488;SDS011;14169;43.684;10.484;2023-04-19T12:31:53;1.58;;;1.40;;
26488;SDS011;14169;43.684;10.484;2023-04-19T12:34:19;1.20;;;1.10;;
26488;SDS011;14169;43.684;10.484;2023-04-19T12:36:44;1.27;;;1.10;;
26488;SDS011;14169;43.684;10.484;2023-04-19T12:39:10;1.13;;;0.98;;
26488;SDS011;14169;43.684;10.484;2023-04-19T12:41:35;1.65;;;1.35;;
26488;SDS011;14169;43.684;10.484;2023-04-19T12:44:01;2.88;;;0.98;;
26488;SDS011;14169;43.684;10.484;2023-04-19T12:46:27;1.33;;;1.10;;
26488;SDS011;14169;43.684;10.484;2023-04-19T12:48:52;2.13;;;1.27;;
26488;SDS011;14169;43.684;10.484;2023-04-19T12:51:17;1.27;;;1.10;;
26488;SDS011;14169;43.684;10.484;2023-04-19T12:53:49;2.70;;;1.10;;
26488;SDS011;14169;43.684;10.484;2023-04-19T12:56:15;2.78;;;1.42;;
26488;SDS011;14169;43.684;10.484;2023-04-19T12:58:41;0.90;;;0.90;;
26488;SDS011;14169;43.684;10.484;2023-04-19T13:01:06;1.35;;;1.00;;
26488;SDS011;14169;43.684;10.484;2023-04-19T13:03:32;2.15;;;0.95;;
26488;SDS011;14169;43.684;10.484;2023-04-19T13:06:00;0.80;;;0.80;;
26488;SDS011;14169;43.684;10.484;2023-04-19T13:08:26;1.30;;;0.85;;
26488;SDS011;14169;43.684;10.484;2023-04-19T13:10:52;2.65;;;1.10;;
26488;SDS011;14169;43.684;10.484;2023-04-19T13:13:17;2.05;;;0.90;;
26488;SDS011;14169;43.684;10.484;2023-04-19T13:15:43;0.88;;;0.80;;
26488;SDS011;14169;43.684;10.484;2023-04-19T13:18:09;3.80;;;1.08;;
26488;SDS011;14169;43.684;10.484;2023-04-19T13:20:35;1.67;;;0.90;;
26488;SDS011;14169;43.684;10.484;2023-04-19T13:23:00;1.20;;;0.95;;
26488;SDS011;14169;43.684;10.484;2023-04-19T13:25:25;1.15;;;1.05;;
26488;SDS011;14169;43.684;10.484;2023-04-19T13:27:51;1.40;;;0.70;;
26488;SDS011;14169;43.684;10.484;2023-04-19T13:30:16;1.60;;;1.20;;
26488;SDS011;14169;43.684;10.484;2023-04-19T13:32:42;1.20;;;1.00;;
26488;SDS011;14169;43.684;10.484;2023-04-19T13:35:07;1.15;;;1.02;;
26488;SDS011;14169;43.684;10.484;2023-04-19T13:37:33;1.80;;;1.00;;
26488;SDS011;14169;43.684;10.484;2023-04-19T13:39:58;1.80;;;1.20;;
26488;SDS011;14169;43.684;10.484;2023-04-19T13:42:24;1.55;;;1.10;;
26488;SDS011;14169;43.684;10.484;2023-04-19T13:44:49;1.35;;;0.85;;
26488;SDS011;14169;43.684;10.484;2023-04-19T13:47:15;1.30;;;0.95;;
26488;SDS011;14169;43.684;10.484;2023-04-19T13:49:40;1.35;;;0.98;;
26488;SDS011;14169;43.684;10.484;2023-04-19T13:52:06;1.38;;;1.10;;
26488;SDS011;14169;43.684;10.484;2023-04-19T13:54:31;1.77;;;0.93;;
26488;SDS011;14169;43.684;10.484;2023-04-19T13:56:57;3.80;;;1.20;;
26488;SDS011;14169;43.684;10.484;2023-04-19T13:59:22;1.10;;;1.00;;
26488;SDS011;14169;43.684;10.484;2023-04-19T14:01:50;1.92;;;1.10;;
26488;SDS011;14169;43.684;10.484;2023-04-19T14:04:15;1.42;;;0.90;;
26488;SDS011;14169;43.684;10.484;2023-04-19T14:06:41;1.63;;;0.90;;
26488;SDS011;14169;43.684;10.484;2023-04-19T14:09:07;1.35;;;1.10;;
26488;SDS011;14169;43.684;10.484;2023-04-19T14:11:32;1.40;;;1.00;;
26488;SDS011;14169;43.684;10.484;2023-04-19T14:13:58;0.90;;;0.90;;
26488;SDS011;14169;43.684;10.484;2023-04-19T14:16:23;1.33;;;0.90;;
26488;SDS011;14169;43.684;10.484;2023-04-19T14:18:49;1.10;;;0.98;;
26488;SDS011;14169;43.684;10.484;2023-04-19T14:21:15;1.35;;;1.05;;
26488;SDS011;14169;43.684;10.484;2023-04-19T14:23:40;0.98;;;0.80;;
26488;SDS011;14169;43.684;10.484;2023-04-19T14:26:05;1.67;;;1.10;;
26488;SDS011;14169;43.684;10.484;2023-04-19T14:28:31;1.08;;;0.95;;
26488;SDS011;14169;43.684;10.484;2023-04-19T14:30:57;1.35;;;1.00;;
26488;SDS011;14169;43.684;10.484;2023-04-19T14:33:22;1.92;;;0.93;;
26488;SDS011;14169;43.684;10.484;2023-04-19T14:35:48;1.20;;;0.93;;
26488;SDS011;14169;43.684;10.484;2023-04-19T14:38:13;1.20;;;1.00;;
26488;SDS011;14169;43.684;10.484;2023-04-19T14:40:38;1.40;;;1.10;;
26488;SDS011;14169;43.684;10.484;2023-04-19T14:43:04;1.23;;;1.00;;
26488;SDS011;14169;43.684;10.484;2023-04-19T14:45:29;1.08;;;0.98;;
26488;SDS011;14169;43.684;10.484;2023-04-19T14:47:55;0.80;;;0.80;;
26488;SDS011;14169;43.684;10.484;2023-04-19T14:50:20;1.38;;;0.82;;
26488;SDS011;14169;43.684;10.484;2023-04-19T14:52:46;1.10;;;1.00;;